sensor_id;sensor_type;location;lat;lon;timestamp;P1;durP1;ratioP1;P2;durP2;ratioP2
4794;SDS011;2411;47.060;15.064;2023-02-07T00:00:54;5.20;;;4.57;;
4794;SDS011;2411;47.060;15.064;2023-02-07T00:03:21;8.17;;;4.60;;
4794;SDS011;2411;47.060;15.064;2023-02-07T00:05:49;7.37;;;5.10;;
4794;SDS011;2411;47.060;15.064;2023-02-07T00:08:16;4.80;;;4.37;;
4794;SDS011;2411;47.060;15.064;2023-02-07T00:10:43;9.50;;;4.60;;
4794;SDS011;2411;47.060;15.064;2023-02-07T00:13:10;7.10;;;4.77;;
4794;SDS011;2411;47.060;15.064;2023-02-07T00:15:37;5.60;;;4.87;;
4794;SDS011;2411;47.060;15.064;2023-02-07T00:18:05;4.00;;;3.70;;
4794;SDS011;2411;47.060;15.064;2023-02-07T00:20:32;6.63;;;4.70;;
4794;SDS011;2411;47.060;15.064;2023-02-07T00:22:59;7.87;;;5.10;;
4794;SDS011;2411;47.060;15.064;2023-02-07T00:25:26;5.07;;;4.57;;
4794;SDS011;2411;47.060;15.064;2023-02-07T00:27:53;4.83;;;4.30;;
4794;SDS011;2411;47.060;15.064;2023-02-07T00:30:21;7.20;;;4.53;;
4794;SDS011;2411;47.060;15.064;2023-02-07T00:32:48;6.17;;;4.60;;
4794;SDS011;2411;47.060;15.064;2023-02-07T00:35:15;6.20;;;4.70;;
4794;SDS011;2411;47.060;15.064;2023-02-07T00:37:44;4.87;;;4.37;;
4794;SDS011;2411;47.060;15.064;2023-02-07T00:40:11;4.83;;;4.43;;
4794;SDS011;2411;47.060;15.064;2023-02-07T00:42:38;6.83;;;4.43;;
4794;SDS011;2411;47.060;15.064;2023-02-07T00:45:05;4.73;;;4.33;;
4794;SDS011;2411;47.060;15.064;2023-02-07T00:47:33;6.30;;;5.00;;
4794;SDS011;2411;47.060;15.064;2023-02-07T00:50:00;6.23;;;5.23;;
4794;SDS011;2411;47.060;15.064;2023-02-07T00:52:27;5.03;;;4.50;;
4794;SDS011;2411;47.060;15.064;2023-02-07T00:54:55;5.03;;;4.47;;
4794;SDS011;2411;47.060;15.064;2023-02-07T00:57:22;5.00;;;4.50;;
4794;SDS011;2411;47.060;15.064;2023-02-07T00:59:49;5.20;;;4.53;;
4794;SDS011;2411;47.060;15.064;2023-02-07T01:02:16;6.20;;;4.80;;
4794;SDS011;2411;47.060;15.064;2023-02-07T01:04:43;5.83;;;4.70;;
4794;SDS011;2411;47.060;15.064;2023-02-07T01:07:10;5.03;;;4.20;;
4794;SDS011;2411;47.060;15.064;2023-02-07T01:09:38;6.43;;;4.37;;
4794;SDS011;2411;47.060;15.064;2023-02-07T01:12:05;5.17;;;4.57;;
4794;SDS011;2411;47.060;15.064;2023-02-07T01:14:33;5.57;;;4.80;;
4794;SDS011;2411;47.060;15.064;2023-02-07T01:17:00;6.03;;;5.20;;
4794;SDS011;2411;47.060;15.064;2023-02-07T01:19:27;6.00;;;4.90;;
4794;SDS011;2411;47.060;15.064;2023-02-07T01:21:56;8.00;;;4.70;;
4794;SDS011;2411;47.060;15.064;2023-02-07T01:24:24;5.40;;;4.33;;
4794;SDS011;2411;47.060;15.064;2023-02-07T01:26:51;5.93;;;4.53;;
4794;SDS011;2411;47.060;15.064;2023-02-07T01:29:18;6.27;;;4.67;;
4794;SDS011;2411;47.060;15.064;2023-02-07T01:31:46;5.50;;;4.60;;
4794;SDS011;2411;47.060;15.064;2023-02-07T01:34:13;5.73;;;4.20;;
4794;SDS011;2411;47.060;15.064;2023-02-07T01:36:40;4.63;;;4.20;;
4794;SDS011;2411;47.060;15.064;2023-02-07T01:39:08;5.80;;;4.30;;
4794;SDS011;2411;47.060;15.064;2023-02-07T01:41:35;5.30;;;4.37;;
4794;SDS011;2411;47.060;15.064;2023-02-07T01:44:06;4.40;;;4.00;;
4794;SDS011;2411;47.060;15.064;2023-02-07T01:46:54;4.40;;;3.30;;
4794;SDS011;2411;47.060;15.064;2023-02-07T01:49:28;5.90;;;5.00;;
4794;SDS011;2411;47.060;15.064;2023-02-07T01:51:58;5.30;;;4.80;;
4794;SDS011;2411;47.060;15.064;2023-02-07T01:54:30;6.63;;;5.60;;
4794;SDS011;2411;47.060;15.064;2023-02-07T01:57:04;5.27;;;4.37;;
4794;SDS011;2411;47.060;15.064;2023-02-07T01:59:35;6.17;;;5.00;;
4794;SDS011;2411;47.060;15.064;2023-02-07T02:02:04;4.43;;;3.60;;
4794;SDS011;2411;47.060;15.064;2023-02-07T02:04:31;5.23;;;4.47;;
4794;SDS011;2411;47.060;15.064;2023-02-07T02:06:59;5.30;;;4.33;;
4794;SDS011;2411;47.060;15.064;2023-02-07T02:09:26;5.20;;;4.53;;
4794;SDS011;2411;47.060;15.064;2023-02-07T02:17:33;5.07;;;4.60;;
4794;SDS011;2411;47.060;15.064;2023-02-07T02:20:39;4.77;;;4.30;;
4794;SDS011;2411;47.060;15.064;2023-02-07T02:34:06;4.90;;;4.50;;
4794;SDS011;2411;47.060;15.064;2023-02-07T02:36:51;4.80;;;4.30;;
4794;SDS011;2411;47.060;15.064;2023-02-07T02:39:30;6.50;;;3.97;;
4794;SDS011;2411;47.060;15.064;2023-02-07T02:42:28;6.03;;;3.90;;
4794;SDS011;2411;47.060;15.064;2023-02-07T02:45:06;8.70;;;5.70;;
4794;SDS011;2411;47.060;15.064;2023-02-07T02:47:39;4.73;;;4.20;;
4794;SDS011;2411;47.060;15.064;2023-02-07T02:50:11;5.73;;;4.43;;
4794;SDS011;2411;47.060;15.064;2023-02-07T02:52:39;4.23;;;3.83;;
4794;SDS011;2411;47.060;15.064;2023-02-07T02:55:16;4.77;;;4.27;;
4794;SDS011;2411;47.060;15.064;2023-02-07T03:09:50;5.33;;;4.40;;
4794;SDS011;2411;47.060;15.064;2023-02-07T03:15:02;4.40;;;4.00;;
4794;SDS011;2411;47.060;15.064;2023-02-07T03:17:52;5.07;;;3.63;;
4794;SDS011;2411;47.060;15.064;2023-02-07T03:20:26;3.67;;;3.43;;
4794;SDS011;2411;47.060;15.064;2023-02-07T03:22:57;4.67;;;4.27;;
4794;SDS011;2411;47.060;15.064;2023-02-07T03:25:27;3.67;;;3.33;;
4794;SDS011;2411;47.060;15.064;2023-02-07T03:27:56;3.70;;;3.40;;
4794;SDS011;2411;47.060;15.064;2023-02-07T03:30:25;5.90;;;4.50;;
4794;SDS011;2411;47.060;15.064;2023-02-07T03:32:58;5.03;;;3.37;;
4794;SDS011;2411;47.060;15.064;2023-02-07T03:35:39;4.13;;;3.63;;
4794;SDS011;2411;47.060;15.064;2023-02-07T03:38:28;7.83;;;3.60;;
4794;SDS011;2411;47.060;15.064;2023-02-07T03:40:57;3.90;;;3.60;;
4794;SDS011;2411;47.060;15.064;2023-02-07T03:43:28;4.47;;;4.07;;
4794;SDS011;2411;47.060;15.064;2023-02-07T03:45:57;6.30;;;3.97;;
4794;SDS011;2411;47.060;15.064;2023-02-07T03:48:25;4.00;;;3.70;;
4794;SDS011;2411;47.060;15.064;2023-02-07T03:50:52;8.60;;;4.47;;
4794;SDS011;2411;47.060;15.064;2023-02-07T03:53:19;4.00;;;3.70;;
4794;SDS011;2411;47.060;15.064;2023-02-07T03:55:47;3.80;;;3.50;;
4794;SDS011;2411;47.060;15.064;2023-02-07T03:58:14;4.93;;;4.47;;
4794;SDS011;2411;47.060;15.064;2023-02-07T04:00:41;4.70;;;4.03;;
4794;SDS011;2411;47.060;15.064;2023-02-07T04:03:08;3.63;;;3.37;;
4794;SDS011;2411;47.060;15.064;2023-02-07T04:05:36;3.47;;;3.20;;
4794;SDS011;2411;47.060;15.064;2023-02-07T04:08:03;4.30;;;3.60;;
4794;SDS011;2411;47.060;15.064;2023-02-07T04:10:31;4.33;;;3.97;;
4794;SDS011;2411;47.060;15.064;2023-02-07T04:12:58;5.33;;;3.80;;
4794;SDS011;2411;47.060;15.064;2023-02-07T04:15:25;4.03;;;3.47;;
4794;SDS011;2411;47.060;15.064;2023-02-07T04:17:53;4.47;;;3.97;;
4794;SDS011;2411;47.060;15.064;2023-02-07T04:20:20;8.17;;;4.30;;
4794;SDS011;2411;47.060;15.064;2023-02-07T04:22:47;4.23;;;3.83;;
4794;SDS011;2411;47.060;15.064;2023-02-07T04:25:14;4.93;;;3.87;;
4794;SDS011;2411;47.060;15.064;2023-02-07T04:27:42;5.23;;;3.70;;
4794;SDS011;2411;47.060;15.064;2023-02-07T04:30:09;4.20;;;3.80;;
4794;SDS011;2411;47.060;15.064;2023-02-07T04:32:37;7.37;;;4.60;;
4794;SDS011;2411;47.060;15.064;2023-02-07T04:35:04;4.93;;;3.77;;
4794;SDS011;2411;47.060;15.064;2023-02-07T04:37:32;4.60;;;4.20;;
4794;SDS011;2411;47.060;15.064;2023-02-07T04:39:59;4.13;;;3.77;;
4794;SDS011;2411;47.060;15.064;2023-02-07T04:42:26;4.10;;;3.80;;
4794;SDS011;2411;47.060;15.064;2023-02-07T04:44:54;4.90;;;3.83;;
4794;SDS011;2411;47.060;15.064;2023-02-07T04:47:21;5.03;;;3.87;;
4794;SDS011;2411;47.060;15.064;2023-02-07T04:49:48;4.30;;;3.90;;
4794;SDS011;2411;47.060;15.064;2023-02-07T04:52:15;3.30;;;3.10;;
4794;SDS011;2411;47.060;15.064;2023-02-07T04:54:42;4.17;;;3.50;;
4794;SDS011;2411;47.060;15.064;2023-02-07T04:57:10;3.87;;;3.50;;
4794;SDS011;2411;47.060;15.064;2023-02-07T04:59:37;3.50;;;3.20;;
4794;SDS011;2411;47.060;15.064;2023-02-07T05:02:04;4.13;;;3.80;;
4794;SDS011;2411;47.060;15.064;2023-02-07T05:04:31;4.23;;;3.83;;
4794;SDS011;2411;47.060;15.064;2023-02-07T05:06:59;5.77;;;4.03;;
4794;SDS011;2411;47.060;15.064;2023-02-07T05:09:26;4.57;;;3.80;;
4794;SDS011;2411;47.060;15.064;2023-02-07T05:11:53;4.33;;;3.67;;
4794;SDS011;2411;47.060;15.064;2023-02-07T05:14:20;7.73;;;3.87;;
4794;SDS011;2411;47.060;15.064;2023-02-07T05:16:47;4.27;;;3.87;;
4794;SDS011;2411;47.060;15.064;2023-02-07T05:19:14;3.10;;;2.90;;
4794;SDS011;2411;47.060;15.064;2023-02-07T05:21:42;5.17;;;4.17;;
4794;SDS011;2411;47.060;15.064;2023-02-07T05:24:09;3.50;;;3.27;;
4794;SDS011;2411;47.060;15.064;2023-02-07T05:26:36;6.13;;;3.73;;
4794;SDS011;2411;47.060;15.064;2023-02-07T05:29:05;3.83;;;3.30;;
4794;SDS011;2411;47.060;15.064;2023-02-07T05:31:33;3.90;;;3.50;;
4794;SDS011;2411;47.060;15.064;2023-02-07T05:34:18;4.77;;;3.70;;
4794;SDS011;2411;47.060;15.064;2023-02-07T05:36:46;4.60;;;3.10;;
4794;SDS011;2411;47.060;15.064;2023-02-07T05:39:13;2.97;;;2.73;;
4794;SDS011;2411;47.060;15.064;2023-02-07T05:41:40;3.40;;;3.10;;
4794;SDS011;2411;47.060;15.064;2023-02-07T05:44:07;5.93;;;3.80;;
4794;SDS011;2411;47.060;15.064;2023-02-07T05:46:34;5.33;;;3.90;;
4794;SDS011;2411;47.060;15.064;2023-02-07T05:49:02;4.90;;;3.80;;
4794;SDS011;2411;47.060;15.064;2023-02-07T05:51:29;3.43;;;3.13;;
4794;SDS011;2411;47.060;15.064;2023-02-07T05:53:57;3.10;;;2.90;;
4794;SDS011;2411;47.060;15.064;2023-02-07T05:56:24;3.63;;;3.33;;
4794;SDS011;2411;47.060;15.064;2023-02-07T05:58:51;4.17;;;3.77;;
4794;SDS011;2411;47.060;15.064;2023-02-07T06:01:19;7.50;;;4.10;;
4794;SDS011;2411;47.060;15.064;2023-02-07T06:03:46;5.03;;;4.53;;
4794;SDS011;2411;47.060;15.064;2023-02-07T06:06:13;6.37;;;4.40;;
4794;SDS011;2411;47.060;15.064;2023-02-07T06:08:40;6.07;;;4.63;;
4794;SDS011;2411;47.060;15.064;2023-02-07T06:11:08;4.50;;;4.17;;
4794;SDS011;2411;47.060;15.064;2023-02-07T06:13:35;5.43;;;4.93;;
4794;SDS011;2411;47.060;15.064;2023-02-07T06:16:02;5.17;;;4.33;;
4794;SDS011;2411;47.060;15.064;2023-02-07T06:18:30;6.33;;;4.27;;
4794;SDS011;2411;47.060;15.064;2023-02-07T06:20:57;7.10;;;4.67;;
4794;SDS011;2411;47.060;15.064;2023-02-07T06:23:24;5.80;;;4.00;;
4794;SDS011;2411;47.060;15.064;2023-02-07T06:25:51;6.00;;;4.10;;
4794;SDS011;2411;47.060;15.064;2023-02-07T06:28:18;4.27;;;3.77;;
4794;SDS011;2411;47.060;15.064;2023-02-07T06:30:46;10.43;;;4.50;;
4794;SDS011;2411;47.060;15.064;2023-02-07T06:33:13;7.93;;;6.13;;
4794;SDS011;2411;47.060;15.064;2023-02-07T06:35:40;5.73;;;4.80;;
4794;SDS011;2411;47.060;15.064;2023-02-07T06:38:13;4.00;;;3.60;;
4794;SDS011;2411;47.060;15.064;2023-02-07T06:40:42;5.10;;;3.87;;
4794;SDS011;2411;47.060;15.064;2023-02-07T06:43:10;4.40;;;4.00;;
4794;SDS011;2411;47.060;15.064;2023-02-07T06:45:37;3.97;;;3.67;;
4794;SDS011;2411;47.060;15.064;2023-02-07T06:48:05;4.70;;;3.57;;
4794;SDS011;2411;47.060;15.064;2023-02-07T06:50:33;6.37;;;3.30;;
4794;SDS011;2411;47.060;15.064;2023-02-07T06:53:00;5.03;;;4.47;;
4794;SDS011;2411;47.060;15.064;2023-02-07T06:55:28;5.00;;;4.20;;
4794;SDS011;2411;47.060;15.064;2023-02-07T06:57:56;4.33;;;3.33;;
4794;SDS011;2411;47.060;15.064;2023-02-07T07:00:23;3.10;;;2.90;;
4794;SDS011;2411;47.060;15.064;2023-02-07T07:02:50;5.93;;;4.37;;
4794;SDS011;2411;47.060;15.064;2023-02-07T07:05:18;5.20;;;3.73;;
4794;SDS011;2411;47.060;15.064;2023-02-07T07:07:46;4.77;;;4.37;;
4794;SDS011;2411;47.060;15.064;2023-02-07T07:10:13;5.23;;;4.27;;
4794;SDS011;2411;47.060;15.064;2023-02-07T07:12:41;9.00;;;6.10;;
4794;SDS011;2411;47.060;15.064;2023-02-07T07:15:08;6.20;;;5.10;;
4794;SDS011;2411;47.060;15.064;2023-02-07T07:17:35;7.27;;;5.80;;
4794;SDS011;2411;47.060;15.064;2023-02-07T07:20:03;8.47;;;5.33;;
4794;SDS011;2411;47.060;15.064;2023-02-07T07:22:33;5.53;;;4.97;;
4794;SDS011;2411;47.060;15.064;2023-02-07T07:25:00;7.33;;;5.07;;
4794;SDS011;2411;47.060;15.064;2023-02-07T07:27:28;7.00;;;5.27;;
4794;SDS011;2411;47.060;15.064;2023-02-07T07:29:55;6.20;;;4.97;;
4794;SDS011;2411;47.060;15.064;2023-02-07T07:32:22;5.00;;;4.23;;
4794;SDS011;2411;47.060;15.064;2023-02-07T07:35:00;6.90;;;4.40;;
4794;SDS011;2411;47.060;15.064;2023-02-07T07:37:28;6.43;;;5.10;;
4794;SDS011;2411;47.060;15.064;2023-02-07T07:39:55;5.13;;;4.40;;
4794;SDS011;2411;47.060;15.064;2023-02-07T07:42:22;6.07;;;4.77;;
4794;SDS011;2411;47.060;15.064;2023-02-07T07:44:50;4.40;;;4.00;;
4794;SDS011;2411;47.060;15.064;2023-02-07T07:47:17;5.73;;;5.10;;
4794;SDS011;2411;47.060;15.064;2023-02-07T07:49:44;7.23;;;4.03;;
4794;SDS011;2411;47.060;15.064;2023-02-07T07:52:11;9.67;;;5.50;;
4794;SDS011;2411;47.060;15.064;2023-02-07T07:54:39;7.23;;;5.10;;
4794;SDS011;2411;47.060;15.064;2023-02-07T07:57:06;5.93;;;5.17;;
4794;SDS011;2411;47.060;15.064;2023-02-07T07:59:33;6.33;;;4.40;;
4794;SDS011;2411;47.060;15.064;2023-02-07T08:02:00;5.30;;;4.40;;
4794;SDS011;2411;47.060;15.064;2023-02-07T08:04:27;5.07;;;4.17;;
4794;SDS011;2411;47.060;15.064;2023-02-07T08:06:55;7.83;;;4.43;;
4794;SDS011;2411;47.060;15.064;2023-02-07T08:09:23;5.07;;;4.03;;
4794;SDS011;2411;47.060;15.064;2023-02-07T08:11:50;5.30;;;4.10;;
4794;SDS011;2411;47.060;15.064;2023-02-07T08:14:17;4.23;;;3.83;;
4794;SDS011;2411;47.060;15.064;2023-02-07T08:16:44;3.67;;;3.37;;
4794;SDS011;2411;47.060;15.064;2023-02-07T08:19:11;6.10;;;4.40;;
4794;SDS011;2411;47.060;15.064;2023-02-07T08:21:39;4.93;;;4.17;;
4794;SDS011;2411;47.060;15.064;2023-02-07T08:24:06;10.30;;;4.83;;
4794;SDS011;2411;47.060;15.064;2023-02-07T08:26:33;6.20;;;4.17;;
4794;SDS011;2411;47.060;15.064;2023-02-07T08:29:00;7.60;;;3.90;;
4794;SDS011;2411;47.060;15.064;2023-02-07T08:31:27;4.10;;;3.67;;
4794;SDS011;2411;47.060;15.064;2023-02-07T08:33:55;3.60;;;3.30;;
4794;SDS011;2411;47.060;15.064;2023-02-07T08:36:22;6.03;;;3.50;;
4794;SDS011;2411;47.060;15.064;2023-02-07T08:38:50;4.97;;;3.20;;
4794;SDS011;2411;47.060;15.064;2023-02-07T08:41:17;6.07;;;4.63;;
4794;SDS011;2411;47.060;15.064;2023-02-07T08:43:45;4.50;;;4.10;;
4794;SDS011;2411;47.060;15.064;2023-02-07T08:46:12;4.57;;;3.90;;
4794;SDS011;2411;47.060;15.064;2023-02-07T08:48:39;4.43;;;4.03;;
4794;SDS011;2411;47.060;15.064;2023-02-07T08:51:07;4.70;;;4.30;;
4794;SDS011;2411;47.060;15.064;2023-02-07T08:53:35;4.50;;;4.07;;
4794;SDS011;2411;47.060;15.064;2023-02-07T08:56:02;4.93;;;4.50;;
4794;SDS011;2411;47.060;15.064;2023-02-07T08:58:30;5.47;;;4.13;;
4794;SDS011;2411;47.060;15.064;2023-02-07T09:00:57;5.83;;;4.70;;
4794;SDS011;2411;47.060;15.064;2023-02-07T09:03:24;6.43;;;4.23;;
4794;SDS011;2411;47.060;15.064;2023-02-07T09:05:55;6.77;;;4.27;;
4794;SDS011;2411;47.060;15.064;2023-02-07T09:08:24;5.33;;;4.47;;
4794;SDS011;2411;47.060;15.064;2023-02-07T09:10:51;5.23;;;4.03;;
4794;SDS011;2411;47.060;15.064;2023-02-07T09:13:19;5.00;;;4.37;;
4794;SDS011;2411;47.060;15.064;2023-02-07T09:15:51;6.20;;;4.90;;
4794;SDS011;2411;47.060;15.064;2023-02-07T09:18:20;4.50;;;4.10;;
4794;SDS011;2411;47.060;15.064;2023-02-07T09:20:47;5.40;;;4.90;;
4794;SDS011;2411;47.060;15.064;2023-02-07T09:23:15;5.97;;;4.30;;
4794;SDS011;2411;47.060;15.064;2023-02-07T09:25:49;4.97;;;4.57;;
4794;SDS011;2411;47.060;15.064;2023-02-07T09:28:18;6.93;;;4.60;;
4794;SDS011;2411;47.060;15.064;2023-02-07T09:30:48;5.60;;;4.77;;
4794;SDS011;2411;47.060;15.064;2023-02-07T09:33:16;5.10;;;4.60;;
4794;SDS011;2411;47.060;15.064;2023-02-07T09:35:44;4.20;;;3.90;;
4794;SDS011;2411;47.060;15.064;2023-02-07T09:38:14;4.07;;;3.70;;
4794;SDS011;2411;47.060;15.064;2023-02-07T09:40:43;3.97;;;3.57;;
4794;SDS011;2411;47.060;15.064;2023-02-07T09:43:17;5.00;;;4.50;;
4794;SDS011;2411;47.060;15.064;2023-02-07T09:46:12;6.27;;;4.20;;
4794;SDS011;2411;47.060;15.064;2023-02-07T09:48:59;4.77;;;4.27;;
4794;SDS011;2411;47.060;15.064;2023-02-07T09:51:32;6.17;;;3.80;;
4794;SDS011;2411;47.060;15.064;2023-02-07T09:54:01;4.23;;;3.93;;
4794;SDS011;2411;47.060;15.064;2023-02-07T09:56:32;4.13;;;3.80;;
4794;SDS011;2411;47.060;15.064;2023-02-07T10:01:55;4.60;;;4.17;;
4794;SDS011;2411;47.060;15.064;2023-02-07T10:04:36;3.83;;;3.50;;
4794;SDS011;2411;47.060;15.064;2023-02-07T10:07:08;5.30;;;4.00;;
4794;SDS011;2411;47.060;15.064;2023-02-07T10:09:39;4.47;;;3.30;;
4794;SDS011;2411;47.060;15.064;2023-02-07T10:21:02;4.00;;;3.60;;
4794;SDS011;2411;47.060;15.064;2023-02-07T10:26:31;5.03;;;4.30;;
4794;SDS011;2411;47.060;15.064;2023-02-07T10:29:17;5.10;;;4.63;;
4794;SDS011;2411;47.060;15.064;2023-02-07T10:31:50;9.23;;;4.00;;
4794;SDS011;2411;47.060;15.064;2023-02-07T10:34:23;4.77;;;4.27;;
4794;SDS011;2411;47.060;15.064;2023-02-07T10:36:53;4.10;;;3.70;;
4794;SDS011;2411;47.060;15.064;2023-02-07T10:39:33;6.00;;;4.23;;
4794;SDS011;2411;47.060;15.064;2023-02-07T10:42:07;4.27;;;3.87;;
4794;SDS011;2411;47.060;15.064;2023-02-07T10:44:41;4.07;;;3.67;;
4794;SDS011;2411;47.060;15.064;2023-02-07T10:47:12;5.30;;;4.47;;
4794;SDS011;2411;47.060;15.064;2023-02-07T10:49:42;6.00;;;3.90;;
4794;SDS011;2411;47.060;15.064;2023-02-07T10:55:02;4.90;;;4.40;;
4794;SDS011;2411;47.060;15.064;2023-02-07T10:57:32;6.10;;;4.50;;
4794;SDS011;2411;47.060;15.064;2023-02-07T11:00:07;5.17;;;4.67;;
4794;SDS011;2411;47.060;15.064;2023-02-07T11:02:49;7.47;;;4.80;;
4794;SDS011;2411;47.060;15.064;2023-02-07T11:07:54;4.87;;;4.40;;
4794;SDS011;2411;47.060;15.064;2023-02-07T11:10:28;4.40;;;4.00;;
4794;SDS011;2411;47.060;15.064;2023-02-07T11:13:10;4.63;;;4.23;;
4794;SDS011;2411;47.060;15.064;2023-02-07T11:15:48;5.03;;;4.30;;
4794;SDS011;2411;47.060;15.064;2023-02-07T11:18:52;10.10;;;5.03;;
4794;SDS011;2411;47.060;15.064;2023-02-07T11:23:49;4.60;;;4.00;;
4794;SDS011;2411;47.060;15.064;2023-02-07T11:26:21;5.33;;;4.20;;
4794;SDS011;2411;47.060;15.064;2023-02-07T11:28:52;9.93;;;4.80;;
4794;SDS011;2411;47.060;15.064;2023-02-07T11:31:30;4.70;;;4.30;;
4794;SDS011;2411;47.060;15.064;2023-02-07T11:35:03;4.33;;;3.93;;
4794;SDS011;2411;47.060;15.064;2023-02-07T11:45:35;3.97;;;3.67;;
4794;SDS011;2411;47.060;15.064;2023-02-07T11:48:04;4.57;;;3.73;;
4794;SDS011;2411;47.060;15.064;2023-02-07T11:50:37;4.23;;;3.80;;
4794;SDS011;2411;47.060;15.064;2023-02-07T11:53:06;4.40;;;3.90;;
4794;SDS011;2411;47.060;15.064;2023-02-07T11:56:20;4.80;;;3.57;;
4794;SDS011;2411;47.060;15.064;2023-02-07T11:58:55;6.10;;;4.00;;
4794;SDS011;2411;47.060;15.064;2023-02-07T12:01:25;9.40;;;3.97;;
4794;SDS011;2411;47.060;15.064;2023-02-07T12:03:56;5.30;;;4.30;;
4794;SDS011;2411;47.060;15.064;2023-02-07T12:06:39;4.40;;;3.70;;
4794;SDS011;2411;47.060;15.064;2023-02-07T12:09:21;8.40;;;4.13;;
4794;SDS011;2411;47.060;15.064;2023-02-07T12:12:33;5.00;;;4.50;;
4794;SDS011;2411;47.060;15.064;2023-02-07T12:17:55;6.30;;;4.03;;
4794;SDS011;2411;47.060;15.064;2023-02-07T12:20:32;7.47;;;4.03;;
4794;SDS011;2411;47.060;15.064;2023-02-07T12:25:54;5.97;;;4.57;;
4794;SDS011;2411;47.060;15.064;2023-02-07T12:28:41;5.90;;;4.23;;
4794;SDS011;2411;47.060;15.064;2023-02-07T12:34:11;3.40;;;3.10;;
4794;SDS011;2411;47.060;15.064;2023-02-07T12:36:47;5.70;;;4.43;;
4794;SDS011;2411;47.060;15.064;2023-02-07T12:39:33;3.50;;;3.20;;
4794;SDS011;2411;47.060;15.064;2023-02-07T12:44:56;5.40;;;4.17;;
4794;SDS011;2411;47.060;15.064;2023-02-07T13:02:12;4.13;;;3.80;;
4794;SDS011;2411;47.060;15.064;2023-02-07T13:04:07;6.43;;;3.83;;
4794;SDS011;2411;47.060;15.064;2023-02-07T13:06:49;8.60;;;3.90;;
4794;SDS011;2411;47.060;15.064;2023-02-07T13:09:59;4.33;;;3.70;;
4794;SDS011;2411;47.060;15.064;2023-02-07T13:12:37;4.27;;;3.60;;
4794;SDS011;2411;47.060;15.064;2023-02-07T13:15:46;4.60;;;3.50;;
4794;SDS011;2411;47.060;15.064;2023-02-07T13:23:37;8.43;;;3.20;;
4794;SDS011;2411;47.060;15.064;2023-02-07T13:26:10;3.67;;;3.37;;
4794;SDS011;2411;47.060;15.064;2023-02-07T13:31:14;4.53;;;2.77;;
4794;SDS011;2411;47.060;15.064;2023-02-07T13:33:45;3.77;;;2.90;;
4794;SDS011;2411;47.060;15.064;2023-02-07T13:36:16;4.83;;;3.23;;
4794;SDS011;2411;47.060;15.064;2023-02-07T13:54:31;2.90;;;2.70;;
4794;SDS011;2411;47.060;15.064;2023-02-07T13:57:20;4.17;;;2.87;;
4794;SDS011;2411;47.060;15.064;2023-02-07T14:00:20;9.17;;;3.40;;
4794;SDS011;2411;47.060;15.064;2023-02-07T14:03:26;3.20;;;2.80;;
4794;SDS011;2411;47.060;15.064;2023-02-07T14:05:46;3.37;;;3.03;;
4794;SDS011;2411;47.060;15.064;2023-02-07T14:10:53;5.10;;;3.60;;
4794;SDS011;2411;47.060;15.064;2023-02-07T14:13:32;4.47;;;3.20;;
4794;SDS011;2411;47.060;15.064;2023-02-07T14:21:04;3.40;;;3.10;;
4794;SDS011;2411;47.060;15.064;2023-02-07T14:31:49;4.30;;;3.90;;
4794;SDS011;2411;47.060;15.064;2023-02-07T14:34:20;3.73;;;3.30;;
4794;SDS011;2411;47.060;15.064;2023-02-07T14:36:50;5.03;;;4.10;;
4794;SDS011;2411;47.060;15.064;2023-02-07T14:39:30;4.10;;;3.70;;
4794;SDS011;2411;47.060;15.064;2023-02-07T14:42:08;7.57;;;5.10;;
4794;SDS011;2411;47.060;15.064;2023-02-07T14:44:43;14.70;;;8.13;;
4794;SDS011;2411;47.060;15.064;2023-02-07T14:47:23;5.80;;;4.23;;
4794;SDS011;2411;47.060;15.064;2023-02-07T14:49:57;7.50;;;3.80;;
4794;SDS011;2411;47.060;15.064;2023-02-07T14:52:27;4.33;;;3.70;;
4794;SDS011;2411;47.060;15.064;2023-02-07T14:54:57;5.03;;;3.63;;
4794;SDS011;2411;47.060;15.064;2023-02-07T15:02:58;5.70;;;4.77;;
4794;SDS011;2411;47.060;15.064;2023-02-07T15:05:34;7.20;;;4.93;;
4794;SDS011;2411;47.060;15.064;2023-02-07T15:08:14;6.53;;;4.50;;
4794;SDS011;2411;47.060;15.064;2023-02-07T15:11:02;5.90;;;4.67;;
4794;SDS011;2411;47.060;15.064;2023-02-07T15:16:26;4.93;;;4.30;;
4794;SDS011;2411;47.060;15.064;2023-02-07T15:18:58;7.00;;;4.67;;
4794;SDS011;2411;47.060;15.064;2023-02-07T15:21:45;5.00;;;4.50;;
4794;SDS011;2411;47.060;15.064;2023-02-07T15:27:18;5.00;;;4.40;;
4794;SDS011;2411;47.060;15.064;2023-02-07T15:29:57;5.13;;;4.30;;
4794;SDS011;2411;47.060;15.064;2023-02-07T15:32:27;5.30;;;3.97;;
4794;SDS011;2411;47.060;15.064;2023-02-07T15:34:57;5.20;;;4.10;;
4794;SDS011;2411;47.060;15.064;2023-02-07T15:37:32;5.13;;;4.63;;
4794;SDS011;2411;47.060;15.064;2023-02-07T15:39:59;5.50;;;4.30;;
4794;SDS011;2411;47.060;15.064;2023-02-07T15:42:27;6.70;;;4.87;;
4794;SDS011;2411;47.060;15.064;2023-02-07T15:44:55;11.70;;;5.77;;
4794;SDS011;2411;47.060;15.064;2023-02-07T15:49:57;13.60;;;5.80;;
4794;SDS011;2411;47.060;15.064;2023-02-07T15:52:35;14.13;;;6.10;;
4794;SDS011;2411;47.060;15.064;2023-02-07T15:57:58;10.70;;;6.63;;
4794;SDS011;2411;47.060;15.064;2023-02-07T16:00:27;11.73;;;7.40;;
4794;SDS011;2411;47.060;15.064;2023-02-07T16:02:57;9.77;;;7.00;;
4794;SDS011;2411;47.060;15.064;2023-02-07T16:05:36;11.27;;;7.27;;
4794;SDS011;2411;47.060;15.064;2023-02-07T16:08:05;12.67;;;8.33;;
4794;SDS011;2411;47.060;15.064;2023-02-07T16:10:53;11.10;;;7.23;;
4794;SDS011;2411;47.060;15.064;2023-02-07T16:13:20;9.87;;;7.43;;
4794;SDS011;2411;47.060;15.064;2023-02-07T16:15:58;10.60;;;7.07;;
4794;SDS011;2411;47.060;15.064;2023-02-07T16:18:43;10.90;;;6.90;;
4794;SDS011;2411;47.060;15.064;2023-02-07T16:21:13;9.70;;;6.77;;
4794;SDS011;2411;47.060;15.064;2023-02-07T16:23:45;7.57;;;6.37;;
4794;SDS011;2411;47.060;15.064;2023-02-07T16:26:15;8.13;;;6.10;;
4794;SDS011;2411;47.060;15.064;2023-02-07T16:28:45;9.83;;;6.70;;
4794;SDS011;2411;47.060;15.064;2023-02-07T16:31:13;13.93;;;6.00;;
4794;SDS011;2411;47.060;15.064;2023-02-07T16:33:40;13.57;;;7.00;;
4794;SDS011;2411;47.060;15.064;2023-02-07T16:36:17;10.13;;;6.87;;
4794;SDS011;2411;47.060;15.064;2023-02-07T16:38:44;10.37;;;6.37;;
4794;SDS011;2411;47.060;15.064;2023-02-07T16:41:21;10.17;;;6.77;;
4794;SDS011;2411;47.060;15.064;2023-02-07T16:44:00;9.37;;;6.17;;
4794;SDS011;2411;47.060;15.064;2023-02-07T16:46:31;8.43;;;6.70;;
4794;SDS011;2411;47.060;15.064;2023-02-07T16:48:59;7.60;;;5.90;;
4794;SDS011;2411;47.060;15.064;2023-02-07T16:51:27;6.80;;;5.50;;
4794;SDS011;2411;47.060;15.064;2023-02-07T16:53:54;8.90;;;5.50;;
4794;SDS011;2411;47.060;15.064;2023-02-07T16:56:25;8.47;;;6.57;;
4794;SDS011;2411;47.060;15.064;2023-02-07T16:58:53;9.20;;;5.63;;
4794;SDS011;2411;47.060;15.064;2023-02-07T17:01:21;7.77;;;5.93;;
4794;SDS011;2411;47.060;15.064;2023-02-07T17:03:48;6.03;;;5.03;;
4794;SDS011;2411;47.060;15.064;2023-02-07T17:06:16;8.60;;;5.03;;
4794;SDS011;2411;47.060;15.064;2023-02-07T17:08:45;6.60;;;4.70;;
4794;SDS011;2411;47.060;15.064;2023-02-07T17:11:18;9.30;;;5.17;;
4794;SDS011;2411;47.060;15.064;2023-02-07T17:13:57;17.77;;;5.50;;
4794;SDS011;2411;47.060;15.064;2023-02-07T17:16:25;9.93;;;5.70;;
4794;SDS011;2411;47.060;15.064;2023-02-07T17:18:53;8.83;;;6.00;;
4794;SDS011;2411;47.060;15.064;2023-02-07T17:21:20;7.80;;;5.60;;
4794;SDS011;2411;47.060;15.064;2023-02-07T17:23:49;9.20;;;5.90;;
4794;SDS011;2411;47.060;15.064;2023-02-07T17:28:49;8.43;;;4.50;;
4794;SDS011;2411;47.060;15.064;2023-02-07T17:31:20;6.20;;;5.60;;
4794;SDS011;2411;47.060;15.064;2023-02-07T17:33:48;8.10;;;5.80;;
4794;SDS011;2411;47.060;15.064;2023-02-07T17:36:17;6.70;;;5.47;;
4794;SDS011;2411;47.060;15.064;2023-02-07T17:38:45;5.33;;;4.80;;
4794;SDS011;2411;47.060;15.064;2023-02-07T17:41:13;16.60;;;6.10;;
4794;SDS011;2411;47.060;15.064;2023-02-07T17:43:41;7.40;;;5.73;;
4794;SDS011;2411;47.060;15.064;2023-02-07T17:46:16;7.87;;;5.80;;
4794;SDS011;2411;47.060;15.064;2023-02-07T17:48:46;17.53;;;11.30;;
4794;SDS011;2411;47.060;15.064;2023-02-07T17:51:15;10.63;;;6.80;;